Share

Alliance, NE

Panhandle Coop/Box Butte Co (KNEALLIA3) Elev 4140 ft | 42.22 °N, 102.98 °W | Change Station

Current weather conditions updated 7 minutes ago

Partly Cloudy
Partly Cloudy
44.9 °F
Feels Like 41 °F
N
7.0
Wind Variable Wind from NW
Gusts 10.0 mph
Sunrise 6:04 AM
Sunset 7:37 PM
Moon Waning Gibbous

Today is forecast to be Much Cooler than yesterday.

Pressure 29.98 in
Visibility 10.0 miles
Clouds Few 12000 ft
Windchill 41 °F
Dew Point 34 °F
Humidity 67%
Rainfall 0.00 in
Snow Depth Not available.
UV 1 out of 16
Pollen 10.70 out of 12
Air Quality Not available.
Flu Activity Sporadic
METAR KTOR 191353Z AUTO 35005KT 10SM FEW120 07/M02 A3005 RMK AO2 SLP151 T00721022

More Conditions Fewer Conditions

Pressure 29.98 in
Visibility 10.0 miles
Clouds Few 12000 ft
Windchill 41 °F
Dew Point 34 °F
Humidity 67%
Rainfall 0.00 in
Snow Depth Not available.
UV 1 out of 16
Pollen 10.70 out of 12
Air Quality Not available.
Flu Activity Sporadic
METAR KTOR 191353Z AUTO 35005KT 10SM FEW120 07/M02 A3005 RMK AO2 SLP151 T00721022

More Conditions Fewer Conditions

10-Day Weather Forecast

Almanac

Astronomy

Apr. 19, 2014 Rise Set
Actual Time 6:04 AM MDT 7:37 PM MDT
Civil Twilight 5:35 AM MDT 8:06 PM MDT
Nautical Twilight 4:59 AM MDT 8:42 PM MDT
Astronomical Twilight 4:22 AM MDT 9:20 PM MDT
Moon No Moon Rise 9:22 AM MDT
Length of Visible Light 14h 31m
Length of Day
13h 32m
Tomorrow will be 2m 40s longer.
Waning Gibbous, 79% of the Moon is Illuminated
Today
Waning Gibbous
Apr 22
Last Quarter
Apr 29
New
May 6
First Quarter
May 14
Full

Today's Extremes

State Highs State Lows

Community

  • A Glorious Morning
    A Glorious Morning
  • Bleeding Hearts
    Bleeding Hearts
  • Sunset Silhouettes
    Sunset Silhouettes
  • FL sunset Perico Isle
    FL sunset Perico Isle
  • La Conner
    La Conner

WunderPhotos

Upload Photos

1,702,735 photos uploaded!

Nearby

Snow Depth

Station Depth Elevation
No new snow has been reported.

Coastal Water Temperatures

Place Temperature
No Stations Reporting

Earthquake Activity

City Distance Mag. Time & Date
No recent earthquake activity has been reported nearby.
Minimum magnitude displayed is 2.5.

Nearby Weather Stations

Station Location Temp. Windchill Dew Point Humidity Wind Precip. Elev Updated Type
Panhandle Coop/Box Butte Co, Alliance, NE 44.9 °F 41 °F 34 °F 67% NW  at  7.0 mph 0.00 in / hr 4140 ft 8:09 AM MDT Normal
Wayne Rd., Alliance, NE 45.9 °F 42 °F 34 °F 64% East  at  7.0 mph 0.00 in / hr 4091 ft 8:17 AM MDT Normal

Show More Stations Show Fewer Stations

What do you think?

We're not finished. Please let us know what you like, what you don't like, and what you are still missing.